sensor_id;sensor_type;location;lat;lon;timestamp;P1;durP1;ratioP1;P2;durP2;ratioP2
7983;SDS011;4037;47.980;10.172;2022-11-20T00:01:09;6.30;;;5.70;;
7983;SDS011;4037;47.980;10.172;2022-11-20T00:03:36;7.27;;;5.57;;
7983;SDS011;4037;47.980;10.172;2022-11-20T00:06:03;8.70;;;5.93;;
7983;SDS011;4037;47.980;10.172;2022-11-20T00:08:29;6.97;;;5.50;;
7983;SDS011;4037;47.980;10.172;2022-11-20T00:10:55;5.77;;;5.17;;
7983;SDS011;4037;47.980;10.172;2022-11-20T00:13:21;5.67;;;5.03;;
7983;SDS011;4037;47.980;10.172;2022-11-20T00:15:47;8.53;;;4.93;;
7983;SDS011;4037;47.980;10.172;2022-11-20T00:18:13;6.20;;;5.27;;
7983;SDS011;4037;47.980;10.172;2022-11-20T00:20:39;5.83;;;5.00;;
7983;SDS011;4037;47.980;10.172;2022-11-20T00:23:05;5.60;;;5.10;;
7983;SDS011;4037;47.980;10.172;2022-11-20T00:25:33;6.00;;;5.07;;
7983;SDS011;4037;47.980;10.172;2022-11-20T00:28:00;6.73;;;5.80;;
7983;SDS011;4037;47.980;10.172;2022-11-20T00:30:26;5.70;;;5.10;;
7983;SDS011;4037;47.980;10.172;2022-11-20T00:32:52;10.43;;;6.07;;
7983;SDS011;4037;47.980;10.172;2022-11-20T00:35:18;5.60;;;5.00;;
7983;SDS011;4037;47.980;10.172;2022-11-20T00:37:44;6.00;;;5.40;;
7983;SDS011;4037;47.980;10.172;2022-11-20T00:40:10;5.53;;;4.70;;
7983;SDS011;4037;47.980;10.172;2022-11-20T00:42:36;5.53;;;5.03;;
7983;SDS011;4037;47.980;10.172;2022-11-20T00:45:02;6.67;;;5.97;;
7983;SDS011;4037;47.980;10.172;2022-11-20T00:47:28;6.43;;;5.67;;
7983;SDS011;4037;47.980;10.172;2022-11-20T00:49:54;6.10;;;5.47;;
7983;SDS011;4037;47.980;10.172;2022-11-20T00:52:20;6.03;;;4.87;;
7983;SDS011;4037;47.980;10.172;2022-11-20T00:54:46;5.97;;;5.10;;
7983;SDS011;4037;47.980;10.172;2022-11-20T00:57:12;6.00;;;5.40;;
7983;SDS011;4037;47.980;10.172;2022-11-20T00:59:38;6.80;;;5.37;;
7983;SDS011;4037;47.980;10.172;2022-11-20T01:02:04;9.03;;;5.80;;
7983;SDS011;4037;47.980;10.172;2022-11-20T01:04:30;7.33;;;5.63;;
7983;SDS011;4037;47.980;10.172;2022-11-20T01:06:56;6.57;;;5.43;;
7983;SDS011;4037;47.980;10.172;2022-11-20T01:09:22;6.20;;;5.40;;
7983;SDS011;4037;47.980;10.172;2022-11-20T01:11:48;6.70;;;6.00;;
7983;SDS011;4037;47.980;10.172;2022-11-20T01:14:16;6.50;;;5.60;;
7983;SDS011;4037;47.980;10.172;2022-11-20T01:16:43;6.63;;;5.80;;
7983;SDS011;4037;47.980;10.172;2022-11-20T01:19:14;6.40;;;5.70;;
7983;SDS011;4037;47.980;10.172;2022-11-20T01:21:41;6.50;;;5.67;;
7983;SDS011;4037;47.980;10.172;2022-11-20T01:24:09;7.67;;;5.40;;
7983;SDS011;4037;47.980;10.172;2022-11-20T01:26:39;7.93;;;5.67;;
7983;SDS011;4037;47.980;10.172;2022-11-20T01:29:06;6.00;;;5.40;;
7983;SDS011;4037;47.980;10.172;2022-11-20T01:31:33;6.60;;;5.37;;
7983;SDS011;4037;47.980;10.172;2022-11-20T01:34:00;8.63;;;5.03;;
7983;SDS011;4037;47.980;10.172;2022-11-20T01:36:28;5.43;;;4.93;;
7983;SDS011;4037;47.980;10.172;2022-11-20T01:38:55;7.37;;;5.60;;
7983;SDS011;4037;47.980;10.172;2022-11-20T01:41:21;7.63;;;5.33;;
7983;SDS011;4037;47.980;10.172;2022-11-20T01:44:06;5.97;;;5.37;;
7983;SDS011;4037;47.980;10.172;2022-11-20T01:46:33;5.97;;;5.33;;
7983;SDS011;4037;47.980;10.172;2022-11-20T01:49:04;6.97;;;6.07;;
7983;SDS011;4037;47.980;10.172;2022-11-20T01:54:04;6.77;;;5.40;;
7983;SDS011;4037;47.980;10.172;2022-11-20T01:56:33;6.60;;;5.90;;
7983;SDS011;4037;47.980;10.172;2022-11-20T01:59:02;7.20;;;5.67;;
7983;SDS011;4037;47.980;10.172;2022-11-20T02:01:30;7.77;;;5.60;;
7983;SDS011;4037;47.980;10.172;2022-11-20T02:03:56;6.57;;;5.97;;
7983;SDS011;4037;47.980;10.172;2022-11-20T02:06:26;7.93;;;5.27;;
7983;SDS011;4037;47.980;10.172;2022-11-20T02:08:53;6.07;;;4.90;;
7983;SDS011;4037;47.980;10.172;2022-11-20T02:11:20;7.43;;;5.50;;
7983;SDS011;4037;47.980;10.172;2022-11-20T02:13:47;5.63;;;5.13;;
7983;SDS011;4037;47.980;10.172;2022-11-20T02:16:21;8.50;;;5.40;;
7983;SDS011;4037;47.980;10.172;2022-11-20T02:18:48;6.20;;;5.60;;
7983;SDS011;4037;47.980;10.172;2022-11-20T02:24:09;5.90;;;5.20;;
7983;SDS011;4037;47.980;10.172;2022-11-20T02:27:17;6.30;;;5.30;;
7983;SDS011;4037;47.980;10.172;2022-11-20T02:29:37;5.40;;;4.90;;
7983;SDS011;4037;47.980;10.172;2022-11-20T02:32:04;5.93;;;5.17;;
7983;SDS011;4037;47.980;10.172;2022-11-20T02:34:30;6.17;;;5.57;;
7983;SDS011;4037;47.980;10.172;2022-11-20T02:36:56;5.83;;;5.13;;
7983;SDS011;4037;47.980;10.172;2022-11-20T02:39:23;5.70;;;5.20;;
7983;SDS011;4037;47.980;10.172;2022-11-20T02:41:51;7.17;;;5.30;;
7983;SDS011;4037;47.980;10.172;2022-11-20T02:44:18;5.90;;;5.30;;
7983;SDS011;4037;47.980;10.172;2022-11-20T02:46:44;5.57;;;5.00;;
7983;SDS011;4037;47.980;10.172;2022-11-20T02:49:10;8.43;;;5.43;;
7983;SDS011;4037;47.980;10.172;2022-11-20T02:51:36;5.90;;;5.30;;
7983;SDS011;4037;47.980;10.172;2022-11-20T02:54:02;5.23;;;4.73;;
7983;SDS011;4037;47.980;10.172;2022-11-20T02:56:28;6.33;;;4.87;;
7983;SDS011;4037;47.980;10.172;2022-11-20T02:58:54;6.30;;;5.70;;
7983;SDS011;4037;47.980;10.172;2022-11-20T03:01:21;5.50;;;5.00;;
7983;SDS011;4037;47.980;10.172;2022-11-20T03:03:47;6.13;;;5.53;;
7983;SDS011;4037;47.980;10.172;2022-11-20T03:06:14;6.40;;;5.80;;
7983;SDS011;4037;47.980;10.172;2022-11-20T03:08:40;6.40;;;4.50;;
7983;SDS011;4037;47.980;10.172;2022-11-20T03:11:06;7.00;;;5.07;;
7983;SDS011;4037;47.980;10.172;2022-11-20T03:13:33;6.40;;;5.80;;
7983;SDS011;4037;47.980;10.172;2022-11-20T03:16:09;5.67;;;5.17;;
7983;SDS011;4037;47.980;10.172;2022-11-20T03:18:36;7.10;;;5.10;;
7983;SDS011;4037;47.980;10.172;2022-11-20T03:21:02;6.43;;;4.80;;
7983;SDS011;4037;47.980;10.172;2022-11-20T03:23:29;5.33;;;4.83;;
7983;SDS011;4037;47.980;10.172;2022-11-20T03:25:56;5.47;;;4.90;;
7983;SDS011;4037;47.980;10.172;2022-11-20T03:28:22;5.87;;;4.83;;
7983;SDS011;4037;47.980;10.172;2022-11-20T03:30:48;5.63;;;5.10;;
7983;SDS011;4037;47.980;10.172;2022-11-20T03:33:14;5.83;;;5.10;;
7983;SDS011;4037;47.980;10.172;2022-11-20T03:35:40;6.60;;;6.00;;
7983;SDS011;4037;47.980;10.172;2022-11-20T03:38:06;5.90;;;4.93;;
7983;SDS011;4037;47.980;10.172;2022-11-20T03:40:33;6.77;;;5.47;;
7983;SDS011;4037;47.980;10.172;2022-11-20T03:43:00;5.90;;;5.30;;
7983;SDS011;4037;47.980;10.172;2022-11-20T03:45:26;5.63;;;5.13;;
7983;SDS011;4037;47.980;10.172;2022-11-20T03:47:52;5.67;;;5.07;;
7983;SDS011;4037;47.980;10.172;2022-11-20T03:50:18;5.63;;;5.13;;
7983;SDS011;4037;47.980;10.172;2022-11-20T03:52:44;8.67;;;6.00;;
7983;SDS011;4037;47.980;10.172;2022-11-20T03:55:10;7.10;;;5.47;;
7983;SDS011;4037;47.980;10.172;2022-11-20T03:57:36;7.63;;;5.70;;
7983;SDS011;4037;47.980;10.172;2022-11-20T04:00:02;5.57;;;5.00;;
7983;SDS011;4037;47.980;10.172;2022-11-20T04:02:28;6.30;;;5.70;;
7983;SDS011;4037;47.980;10.172;2022-11-20T04:04:54;8.13;;;6.10;;
7983;SDS011;4037;47.980;10.172;2022-11-20T04:07:20;7.10;;;6.37;;
7983;SDS011;4037;47.980;10.172;2022-11-20T04:09:46;6.50;;;5.90;;
7983;SDS011;4037;47.980;10.172;2022-11-20T04:12:13;6.53;;;5.93;;
7983;SDS011;4037;47.980;10.172;2022-11-20T04:14:39;6.63;;;6.00;;
7983;SDS011;4037;47.980;10.172;2022-11-20T04:17:05;6.20;;;5.50;;
7983;SDS011;4037;47.980;10.172;2022-11-20T04:19:31;6.67;;;5.63;;
7983;SDS011;4037;47.980;10.172;2022-11-20T04:21:57;6.83;;;5.13;;
7983;SDS011;4037;47.980;10.172;2022-11-20T04:24:23;5.93;;;5.20;;
7983;SDS011;4037;47.980;10.172;2022-11-20T04:26:49;7.17;;;5.20;;
7983;SDS011;4037;47.980;10.172;2022-11-20T04:29:15;6.97;;;6.27;;
7983;SDS011;4037;47.980;10.172;2022-11-20T04:31:41;6.80;;;5.30;;
7983;SDS011;4037;47.980;10.172;2022-11-20T04:34:07;7.73;;;5.77;;
7983;SDS011;4037;47.980;10.172;2022-11-20T04:36:33;9.27;;;5.97;;
7983;SDS011;4037;47.980;10.172;2022-11-20T04:39:01;6.63;;;5.93;;
7983;SDS011;4037;47.980;10.172;2022-11-20T04:41:28;7.00;;;6.10;;
7983;SDS011;4037;47.980;10.172;2022-11-20T04:43:55;6.73;;;6.03;;
7983;SDS011;4037;47.980;10.172;2022-11-20T04:46:24;6.83;;;5.67;;
7983;SDS011;4037;47.980;10.172;2022-11-20T04:48:51;7.83;;;6.37;;
7983;SDS011;4037;47.980;10.172;2022-11-20T04:51:17;7.03;;;6.30;;
7983;SDS011;4037;47.980;10.172;2022-11-20T04:53:43;8.03;;;5.93;;
7983;SDS011;4037;47.980;10.172;2022-11-20T04:56:10;8.03;;;5.87;;
7983;SDS011;4037;47.980;10.172;2022-11-20T04:58:36;7.70;;;6.90;;
7983;SDS011;4037;47.980;10.172;2022-11-20T05:01:03;6.40;;;5.80;;
7983;SDS011;4037;47.980;10.172;2022-11-20T05:03:29;6.50;;;5.80;;
7983;SDS011;4037;47.980;10.172;2022-11-20T05:05:56;8.03;;;6.33;;
7983;SDS011;4037;47.980;10.172;2022-11-20T05:08:22;8.07;;;7.13;;
7983;SDS011;4037;47.980;10.172;2022-11-20T05:10:48;6.37;;;5.77;;
7983;SDS011;4037;47.980;10.172;2022-11-20T05:13:14;6.40;;;5.80;;
7983;SDS011;4037;47.980;10.172;2022-11-20T05:15:40;6.43;;;5.70;;
7983;SDS011;4037;47.980;10.172;2022-11-20T05:18:06;6.50;;;5.83;;
7983;SDS011;4037;47.980;10.172;2022-11-20T05:20:32;6.97;;;5.80;;
7983;SDS011;4037;47.980;10.172;2022-11-20T05:22:58;7.03;;;6.33;;
7983;SDS011;4037;47.980;10.172;2022-11-20T05:25:24;7.97;;;5.97;;
7983;SDS011;4037;47.980;10.172;2022-11-20T05:27:50;5.97;;;5.37;;
7983;SDS011;4037;47.980;10.172;2022-11-20T05:30:16;6.93;;;5.83;;
7983;SDS011;4037;47.980;10.172;2022-11-20T05:32:42;5.70;;;5.20;;
7983;SDS011;4037;47.980;10.172;2022-11-20T05:35:08;7.33;;;5.13;;
7983;SDS011;4037;47.980;10.172;2022-11-20T05:37:34;6.20;;;5.53;;
7983;SDS011;4037;47.980;10.172;2022-11-20T05:40:00;6.53;;;5.77;;
7983;SDS011;4037;47.980;10.172;2022-11-20T05:42:26;6.93;;;5.10;;
7983;SDS011;4037;47.980;10.172;2022-11-20T05:44:55;6.27;;;5.07;;
7983;SDS011;4037;47.980;10.172;2022-11-20T05:47:21;5.83;;;5.23;;
7983;SDS011;4037;47.980;10.172;2022-11-20T05:49:47;6.27;;;5.40;;
7983;SDS011;4037;47.980;10.172;2022-11-20T05:52:13;7.30;;;5.50;;
7983;SDS011;4037;47.980;10.172;2022-11-20T05:54:39;7.43;;;5.57;;
7983;SDS011;4037;47.980;10.172;2022-11-20T05:57:05;6.53;;;5.20;;
7983;SDS011;4037;47.980;10.172;2022-11-20T05:59:31;8.00;;;5.90;;
7983;SDS011;4037;47.980;10.172;2022-11-20T06:01:57;5.67;;;5.10;;
7983;SDS011;4037;47.980;10.172;2022-11-20T06:04:23;7.33;;;5.90;;
7983;SDS011;4037;47.980;10.172;2022-11-20T06:06:49;7.50;;;6.03;;
7983;SDS011;4037;47.980;10.172;2022-11-20T06:09:15;6.87;;;6.17;;
7983;SDS011;4037;47.980;10.172;2022-11-20T06:11:41;6.90;;;5.90;;
7983;SDS011;4037;47.980;10.172;2022-11-20T06:14:07;9.93;;;6.40;;
7983;SDS011;4037;47.980;10.172;2022-11-20T06:16:33;7.37;;;5.97;;
7983;SDS011;4037;47.980;10.172;2022-11-20T06:18:59;6.57;;;5.90;;
7983;SDS011;4037;47.980;10.172;2022-11-20T06:21:25;6.87;;;6.00;;
7983;SDS011;4037;47.980;10.172;2022-11-20T06:23:51;9.07;;;6.33;;
7983;SDS011;4037;47.980;10.172;2022-11-20T06:26:19;8.93;;;5.90;;
7983;SDS011;4037;47.980;10.172;2022-11-20T06:28:45;10.07;;;6.50;;
7983;SDS011;4037;47.980;10.172;2022-11-20T06:31:12;9.33;;;6.00;;
7983;SDS011;4037;47.980;10.172;2022-11-20T06:33:39;9.37;;;5.93;;
7983;SDS011;4037;47.980;10.172;2022-11-20T06:36:05;6.97;;;6.17;;
7983;SDS011;4037;47.980;10.172;2022-11-20T06:38:31;8.73;;;6.03;;
7983;SDS011;4037;47.980;10.172;2022-11-20T06:40:57;7.77;;;6.03;;
7983;SDS011;4037;47.980;10.172;2022-11-20T06:43:24;8.87;;;7.00;;
7983;SDS011;4037;47.980;10.172;2022-11-20T06:45:53;7.70;;;6.23;;
7983;SDS011;4037;47.980;10.172;2022-11-20T06:48:19;7.73;;;6.10;;
7983;SDS011;4037;47.980;10.172;2022-11-20T06:50:45;7.00;;;6.00;;
7983;SDS011;4037;47.980;10.172;2022-11-20T06:53:12;8.23;;;6.20;;
7983;SDS011;4037;47.980;10.172;2022-11-20T06:55:41;7.07;;;6.47;;
7983;SDS011;4037;47.980;10.172;2022-11-20T06:58:07;6.73;;;6.03;;
7983;SDS011;4037;47.980;10.172;2022-11-20T07:00:33;7.53;;;5.50;;
7983;SDS011;4037;47.980;10.172;2022-11-20T07:03:02;7.23;;;6.07;;
7983;SDS011;4037;47.980;10.172;2022-11-20T07:05:28;7.90;;;5.90;;
7983;SDS011;4037;47.980;10.172;2022-11-20T07:07:55;7.57;;;5.63;;
7983;SDS011;4037;47.980;10.172;2022-11-20T07:10:21;7.27;;;6.13;;
7983;SDS011;4037;47.980;10.172;2022-11-20T07:12:51;6.00;;;5.50;;
7983;SDS011;4037;47.980;10.172;2022-11-20T07:15:17;6.77;;;5.13;;
7983;SDS011;4037;47.980;10.172;2022-11-20T07:17:43;6.53;;;5.57;;
7983;SDS011;4037;47.980;10.172;2022-11-20T07:20:10;6.33;;;5.23;;
7983;SDS011;4037;47.980;10.172;2022-11-20T07:22:36;8.17;;;5.67;;
7983;SDS011;4037;47.980;10.172;2022-11-20T07:25:02;5.80;;;5.03;;
7983;SDS011;4037;47.980;10.172;2022-11-20T07:27:28;6.57;;;4.90;;
7983;SDS011;4037;47.980;10.172;2022-11-20T07:29:54;6.73;;;5.23;;
7983;SDS011;4037;47.980;10.172;2022-11-20T07:32:21;6.00;;;5.13;;
7983;SDS011;4037;47.980;10.172;2022-11-20T07:34:47;6.03;;;5.43;;
7983;SDS011;4037;47.980;10.172;2022-11-20T07:37:13;5.77;;;5.03;;
7983;SDS011;4037;47.980;10.172;2022-11-20T07:39:39;5.33;;;4.83;;
7983;SDS011;4037;47.980;10.172;2022-11-20T07:42:06;6.67;;;5.03;;
7983;SDS011;4037;47.980;10.172;2022-11-20T07:44:31;4.87;;;4.33;;
7983;SDS011;4037;47.980;10.172;2022-11-20T07:46:58;6.27;;;4.27;;
7983;SDS011;4037;47.980;10.172;2022-11-20T07:49:24;5.07;;;4.57;;
7983;SDS011;4037;47.980;10.172;2022-11-20T07:51:50;7.43;;;4.30;;
7983;SDS011;4037;47.980;10.172;2022-11-20T07:54:18;7.77;;;5.00;;
7983;SDS011;4037;47.980;10.172;2022-11-20T07:56:46;6.17;;;4.30;;
7983;SDS011;4037;47.980;10.172;2022-11-20T07:59:13;4.67;;;4.17;;
7983;SDS011;4037;47.980;10.172;2022-11-20T08:01:39;6.73;;;4.50;;
7983;SDS011;4037;47.980;10.172;2022-11-20T08:04:05;6.23;;;4.17;;
7983;SDS011;4037;47.980;10.172;2022-11-20T08:06:31;5.97;;;5.00;;
7983;SDS011;4037;47.980;10.172;2022-11-20T08:08:57;4.63;;;4.03;;
7983;SDS011;4037;47.980;10.172;2022-11-20T08:11:23;4.47;;;3.80;;
7983;SDS011;4037;47.980;10.172;2022-11-20T08:14:08;5.13;;;4.23;;
7983;SDS011;4037;47.980;10.172;2022-11-20T08:16:38;7.30;;;4.27;;
7983;SDS011;4037;47.980;10.172;2022-11-20T08:19:04;6.73;;;4.27;;
7983;SDS011;4037;47.980;10.172;2022-11-20T08:21:30;4.27;;;3.77;;
7983;SDS011;4037;47.980;10.172;2022-11-20T08:23:57;4.77;;;4.27;;
7983;SDS011;4037;47.980;10.172;2022-11-20T08:26:23;5.60;;;4.40;;
7983;SDS011;4037;47.980;10.172;2022-11-20T08:28:52;4.77;;;4.07;;
7983;SDS011;4037;47.980;10.172;2022-11-20T08:31:19;5.30;;;4.00;;
7983;SDS011;4037;47.980;10.172;2022-11-20T08:33:45;4.43;;;3.53;;
7983;SDS011;4037;47.980;10.172;2022-11-20T08:36:11;5.53;;;4.23;;
7983;SDS011;4037;47.980;10.172;2022-11-20T08:38:37;4.17;;;3.80;;
7983;SDS011;4037;47.980;10.172;2022-11-20T08:41:03;4.93;;;3.27;;
7983;SDS011;4037;47.980;10.172;2022-11-20T08:43:52;5.90;;;4.43;;
7983;SDS011;4037;47.980;10.172;2022-11-20T08:46:18;6.07;;;3.80;;
7983;SDS011;4037;47.980;10.172;2022-11-20T08:48:44;5.03;;;2.90;;
7983;SDS011;4037;47.980;10.172;2022-11-20T08:51:10;3.70;;;3.27;;
7983;SDS011;4037;47.980;10.172;2022-11-20T08:53:37;5.17;;;3.50;;
7983;SDS011;4037;47.980;10.172;2022-11-20T08:56:03;4.87;;;3.20;;
7983;SDS011;4037;47.980;10.172;2022-11-20T08:58:29;3.40;;;2.90;;
7983;SDS011;4037;47.980;10.172;2022-11-20T09:00:55;3.03;;;2.77;;
7983;SDS011;4037;47.980;10.172;2022-11-20T09:03:21;4.10;;;3.80;;
7983;SDS011;4037;47.980;10.172;2022-11-20T09:05:47;9.13;;;8.17;;
7983;SDS011;4037;47.980;10.172;2022-11-20T09:08:13;10.27;;;8.23;;
7983;SDS011;4037;47.980;10.172;2022-11-20T09:10:39;6.37;;;5.60;;
7983;SDS011;4037;47.980;10.172;2022-11-20T09:13:05;3.93;;;2.90;;
7983;SDS011;4037;47.980;10.172;2022-11-20T09:15:31;8.00;;;7.27;;
7983;SDS011;4037;47.980;10.172;2022-11-20T09:17:58;2.93;;;2.47;;
7983;SDS011;4037;47.980;10.172;2022-11-20T09:20:25;3.63;;;3.33;;
7983;SDS011;4037;47.980;10.172;2022-11-20T09:22:51;3.97;;;3.07;;
7983;SDS011;4037;47.980;10.172;2022-11-20T09:25:17;4.63;;;2.80;;
7983;SDS011;4037;47.980;10.172;2022-11-20T09:27:43;4.23;;;2.33;;
7983;SDS011;4037;47.980;10.172;2022-11-20T09:30:11;4.47;;;3.00;;
7983;SDS011;4037;47.980;10.172;2022-11-20T09:32:38;2.83;;;2.63;;
7983;SDS011;4037;47.980;10.172;2022-11-20T09:35:04;3.57;;;2.50;;
7983;SDS011;4037;47.980;10.172;2022-11-20T09:37:30;4.23;;;3.83;;
7983;SDS011;4037;47.980;10.172;2022-11-20T09:39:56;4.43;;;4.03;;
7983;SDS011;4037;47.980;10.172;2022-11-20T09:52:55;3.30;;;2.30;;
7983;SDS011;4037;47.980;10.172;2022-11-20T09:55:22;3.47;;;3.17;;
7983;SDS011;4037;47.980;10.172;2022-11-20T09:57:50;2.20;;;2.00;;
7983;SDS011;4037;47.980;10.172;2022-11-20T10:00:16;3.37;;;2.80;;
7983;SDS011;4037;47.980;10.172;2022-11-20T10:02:55;2.70;;;2.00;;
7983;SDS011;4037;47.980;10.172;2022-11-20T10:05:27;3.53;;;2.33;;
7983;SDS011;4037;47.980;10.172;2022-11-20T10:15:34;1.93;;;1.83;;
7983;SDS011;4037;47.980;10.172;2022-11-20T10:26:11;2.53;;;2.33;;
7983;SDS011;4037;47.980;10.172;2022-11-20T10:34:01;2.47;;;2.23;;
7983;SDS011;4037;47.980;10.172;2022-11-20T10:36:30;1.93;;;1.80;;
7983;SDS011;4037;47.980;10.172;2022-11-20T10:39:00;1.90;;;1.80;;
7983;SDS011;4037;47.980;10.172;2022-11-20T10:41:30;1.93;;;1.50;;
7983;SDS011;4037;47.980;10.172;2022-11-20T10:46:33;2.23;;;2.03;;
7983;SDS011;4037;47.980;10.172;2022-11-20T10:49:02;2.13;;;1.60;;
7983;SDS011;4037;47.980;10.172;2022-11-20T10:51:31;2.03;;;1.83;;
7983;SDS011;4037;47.980;10.172;2022-11-20T10:56:38;1.70;;;1.60;;
7983;SDS011;4037;47.980;10.172;2022-11-20T10:59:11;2.40;;;2.10;;
7983;SDS011;4037;47.980;10.172;2022-11-20T11:01:40;2.47;;;2.10;;
7983;SDS011;4037;47.980;10.172;2022-11-20T11:04:14;2.10;;;1.90;;
7983;SDS011;4037;47.980;10.172;2022-11-20T11:06:43;2.70;;;2.00;;
7983;SDS011;4037;47.980;10.172;2022-11-20T11:09:14;2.67;;;2.43;;
7983;SDS011;4037;47.980;10.172;2022-11-20T11:11:41;2.33;;;2.13;;
7983;SDS011;4037;47.980;10.172;2022-11-20T11:14:11;3.10;;;1.90;;
7983;SDS011;4037;47.980;10.172;2022-11-20T11:16:48;2.73;;;2.30;;
7983;SDS011;4037;47.980;10.172;2022-11-20T11:19:14;2.87;;;2.20;;
7983;SDS011;4037;47.980;10.172;2022-11-20T11:21:47;3.10;;;2.30;;
7983;SDS011;4037;47.980;10.172;2022-11-20T11:24:18;2.47;;;2.27;;
7983;SDS011;4037;47.980;10.172;2022-11-20T11:29:42;2.73;;;2.00;;
7983;SDS011;4037;47.980;10.172;2022-11-20T11:32:11;2.73;;;2.30;;
7983;SDS011;4037;47.980;10.172;2022-11-20T11:34:37;2.67;;;2.17;;
7983;SDS011;4037;47.980;10.172;2022-11-20T11:37:03;2.33;;;2.13;;
7983;SDS011;4037;47.980;10.172;2022-11-20T11:39:30;2.60;;;2.40;;
7983;SDS011;4037;47.980;10.172;2022-11-20T11:42:00;2.80;;;2.40;;
7983;SDS011;4037;47.980;10.172;2022-11-20T11:44:28;2.80;;;2.10;;
7983;SDS011;4037;47.980;10.172;2022-11-20T11:47:29;4.13;;;3.40;;
7983;SDS011;4037;47.980;10.172;2022-11-20T11:50:19;2.70;;;2.40;;
7983;SDS011;4037;47.980;10.172;2022-11-20T11:57:54;2.17;;;1.97;;
7983;SDS011;4037;47.980;10.172;2022-11-20T12:00:22;3.43;;;2.70;;
7983;SDS011;4037;47.980;10.172;2022-11-20T12:02:52;2.87;;;2.60;;
7983;SDS011;4037;47.980;10.172;2022-11-20T12:15:39;3.60;;;2.97;;
7983;SDS011;4037;47.980;10.172;2022-11-20T12:18:13;3.00;;;2.70;;
7983;SDS011;4037;47.980;10.172;2022-11-20T12:20:41;2.63;;;2.43;;
7983;SDS011;4037;47.980;10.172;2022-11-20T12:23:14;3.97;;;2.63;;
7983;SDS011;4037;47.980;10.172;2022-11-20T12:25:42;3.33;;;2.67;;
7983;SDS011;4037;47.980;10.172;2022-11-20T12:28:32;3.00;;;2.63;;
7983;SDS011;4037;47.980;10.172;2022-11-20T12:47:26;4.27;;;2.33;;
7983;SDS011;4037;47.980;10.172;2022-11-20T12:50:02;4.07;;;2.43;;
7983;SDS011;4037;47.980;10.172;2022-11-20T12:52:38;3.43;;;2.70;;
7983;SDS011;4037;47.980;10.172;2022-11-20T12:57:53;2.90;;;2.60;;
7983;SDS011;4037;47.980;10.172;2022-11-20T13:00:20;3.67;;;2.73;;
7983;SDS011;4037;47.980;10.172;2022-11-20T13:08:01;4.63;;;3.03;;
7983;SDS011;4037;47.980;10.172;2022-11-20T13:12:58;4.27;;;2.70;;
7983;SDS011;4037;47.980;10.172;2022-11-20T13:18:00;2.60;;;2.40;;
7983;SDS011;4037;47.980;10.172;2022-11-20T13:20:27;3.67;;;2.60;;
7983;SDS011;4037;47.980;10.172;2022-11-20T13:22:56;3.07;;;2.30;;
7983;SDS011;4037;47.980;10.172;2022-11-20T13:25:28;2.37;;;2.17;;
7983;SDS011;4037;47.980;10.172;2022-11-20T13:27:55;2.63;;;2.30;;
7983;SDS011;4037;47.980;10.172;2022-11-20T13:30:22;3.77;;;2.50;;
7983;SDS011;4037;47.980;10.172;2022-11-20T13:32:49;2.30;;;1.90;;
7983;SDS011;4037;47.980;10.172;2022-11-20T13:35:23;2.40;;;2.20;;
7983;SDS011;4037;47.980;10.172;2022-11-20T13:37:59;2.40;;;2.20;;
7983;SDS011;4037;47.980;10.172;2022-11-20T13:40:25;2.43;;;2.23;;
7983;SDS011;4037;47.980;10.172;2022-11-20T13:42:55;2.53;;;2.20;;
7983;SDS011;4037;47.980;10.172;2022-11-20T13:45:26;3.83;;;2.37;;
7983;SDS011;4037;47.980;10.172;2022-11-20T13:47:53;2.10;;;1.90;;
7983;SDS011;4037;47.980;10.172;2022-11-20T13:50:21;5.30;;;2.80;;
7983;SDS011;4037;47.980;10.172;2022-11-20T13:55:21;5.13;;;4.63;;
7983;SDS011;4037;47.980;10.172;2022-11-20T14:00:16;4.73;;;4.30;;
7983;SDS011;4037;47.980;10.172;2022-11-20T14:02:43;4.17;;;3.27;;
7983;SDS011;4037;47.980;10.172;2022-11-20T14:05:46;2.60;;;2.40;;
7983;SDS011;4037;47.980;10.172;2022-11-20T14:08:02;5.07;;;4.03;;
7983;SDS011;4037;47.980;10.172;2022-11-20T14:10:30;3.03;;;2.20;;
7983;SDS011;4037;47.980;10.172;2022-11-20T14:12:56;10.30;;;7.50;;
7983;SDS011;4037;47.980;10.172;2022-11-20T14:17:51;3.50;;;3.20;;
7983;SDS011;4037;47.980;10.172;2022-11-20T14:20:17;3.83;;;3.10;;
7983;SDS011;4037;47.980;10.172;2022-11-20T14:22:51;2.93;;;2.47;;
7983;SDS011;4037;47.980;10.172;2022-11-20T14:27:44;2.90;;;2.60;;
7983;SDS011;4037;47.980;10.172;2022-11-20T14:30:14;3.60;;;3.33;;
7983;SDS011;4037;47.980;10.172;2022-11-20T14:32:40;2.87;;;2.53;;
7983;SDS011;4037;47.980;10.172;2022-11-20T14:35:08;6.07;;;5.57;;
7983;SDS011;4037;47.980;10.172;2022-11-20T14:37:36;5.27;;;3.67;;
7983;SDS011;4037;47.980;10.172;2022-11-20T14:40:04;4.23;;;2.10;;
7983;SDS011;4037;47.980;10.172;2022-11-20T14:42:31;4.23;;;3.83;;
7983;SDS011;4037;47.980;10.172;2022-11-20T14:44:57;12.27;;;11.27;;
7983;SDS011;4037;47.980;10.172;2022-11-20T14:47:25;6.83;;;2.43;;
7983;SDS011;4037;47.980;10.172;2022-11-20T14:49:51;3.03;;;2.63;;
7983;SDS011;4037;47.980;10.172;2022-11-20T14:52:19;3.63;;;3.33;;
7983;SDS011;4037;47.980;10.172;2022-11-20T14:55:07;3.40;;;3.10;;
7983;SDS011;4037;47.980;10.172;2022-11-20T14:57:32;5.30;;;2.40;;
7983;SDS011;4037;47.980;10.172;2022-11-20T15:02:32;2.33;;;2.13;;
7983;SDS011;4037;47.980;10.172;2022-11-20T15:04:59;3.37;;;2.97;;
7983;SDS011;4037;47.980;10.172;2022-11-20T15:07:30;4.43;;;3.50;;
7983;SDS011;4037;47.980;10.172;2022-11-20T15:10:00;3.63;;;3.33;;
7983;SDS011;4037;47.980;10.172;2022-11-20T15:12:26;4.37;;;3.47;;
7983;SDS011;4037;47.980;10.172;2022-11-20T15:14:53;3.30;;;3.00;;
7983;SDS011;4037;47.980;10.172;2022-11-20T15:17:19;2.60;;;2.13;;
7983;SDS011;4037;47.980;10.172;2022-11-20T15:19:44;2.37;;;1.97;;
7983;SDS011;4037;47.980;10.172;2022-11-20T15:22:11;4.00;;;2.53;;
7983;SDS011;4037;47.980;10.172;2022-11-20T15:24:44;7.70;;;4.87;;
7983;SDS011;4037;47.980;10.172;2022-11-20T15:27:10;3.17;;;2.10;;
7983;SDS011;4037;47.980;10.172;2022-11-20T15:29:36;4.17;;;2.50;;
7983;SDS011;4037;47.980;10.172;2022-11-20T15:32:02;3.50;;;3.20;;
7983;SDS011;4037;47.980;10.172;2022-11-20T15:34:28;2.50;;;2.30;;
7983;SDS011;4037;47.980;10.172;2022-11-20T15:36:54;9.03;;;6.07;;
7983;SDS011;4037;47.980;10.172;2022-11-20T15:39:20;8.17;;;5.00;;
7983;SDS011;4037;47.980;10.172;2022-11-20T15:41:46;6.00;;;5.40;;
7983;SDS011;4037;47.980;10.172;2022-11-20T15:44:12;3.97;;;3.67;;
7983;SDS011;4037;47.980;10.172;2022-11-20T15:46:39;7.83;;;6.80;;
7983;SDS011;4037;47.980;10.172;2022-11-20T15:49:16;3.97;;;3.40;;
7983;SDS011;4037;47.980;10.172;2022-11-20T15:51:44;4.47;;;4.07;;
7983;SDS011;4037;47.980;10.172;2022-11-20T15:54:16;4.33;;;2.80;;
7983;SDS011;4037;47.980;10.172;2022-11-20T15:56:44;5.07;;;3.30;;
7983;SDS011;4037;47.980;10.172;2022-11-20T15:59:10;7.13;;;4.10;;
7983;SDS011;4037;47.980;10.172;2022-11-20T16:01:39;5.67;;;5.17;;
7983;SDS011;4037;47.980;10.172;2022-11-20T16:04:05;3.80;;;3.50;;
7983;SDS011;4037;47.980;10.172;2022-11-20T16:06:31;3.97;;;3.50;;
7983;SDS011;4037;47.980;10.172;2022-11-20T16:08:57;7.37;;;5.10;;
7983;SDS011;4037;47.980;10.172;2022-11-20T16:11:23;4.30;;;3.60;;
7983;SDS011;4037;47.980;10.172;2022-11-20T16:13:49;3.87;;;2.87;;
7983;SDS011;4037;47.980;10.172;2022-11-20T16:16:35;4.30;;;3.90;;
7983;SDS011;4037;47.980;10.172;2022-11-20T16:19:01;5.00;;;3.53;;
7983;SDS011;4037;47.980;10.172;2022-11-20T16:21:27;4.93;;;3.87;;
7983;SDS011;4037;47.980;10.172;2022-11-20T16:23:57;4.57;;;3.70;;
7983;SDS011;4037;47.980;10.172;2022-11-20T16:26:23;3.73;;;2.80;;
7983;SDS011;4037;47.980;10.172;2022-11-20T16:28:49;11.23;;;4.77;;
7983;SDS011;4037;47.980;10.172;2022-11-20T16:31:16;5.90;;;3.97;;
7983;SDS011;4037;47.980;10.172;2022-11-20T16:33:42;3.90;;;3.30;;
7983;SDS011;4037;47.980;10.172;2022-11-20T16:36:12;4.73;;;2.93;;
7983;SDS011;4037;47.980;10.172;2022-11-20T16:38:38;3.83;;;2.70;;
7983;SDS011;4037;47.980;10.172;2022-11-20T16:41:05;6.03;;;3.27;;
7983;SDS011;4037;47.980;10.172;2022-11-20T16:43:31;5.70;;;3.90;;
7983;SDS011;4037;47.980;10.172;2022-11-20T16:45:57;5.37;;;3.33;;